NKS37J KFLL-TNCM
Flight info
| Callsign | NKS37J |
|---|---|
| Flight time | N/A |
| Altitude | 39000 |
| Route | SNAPR2 SUMAC Y421 HAGIT Y290 SLUGO ULUBA1 |
| Aircraft | A20N/M-SDE2E3FGHIRWXY/LB1 |
Departure
| Time | 2026-05-03 21:07 |
|---|---|
| Airport | Fort Lauderdale Hollywood International Airport (KFLL) |
Arrival
| Time | N/A |
|---|---|
| Airport | Princess Juliana International Airport (TNCM) |
| Time | Latitude | Longitude | Altitude | Speed | Heading |
|---|---|---|---|---|---|
| 2026-05-03 20:29 | 26.06875 | -80.14256 | 15 ft | 0 kts | 1° |
| 2026-05-03 20:34 | 26.06867 | -80.14256 | 15 ft | 2 kts | 1° |
| 2026-05-03 20:35 | 26.06858 | -80.14256 | 18 ft | 2 kts | 1° |
| 2026-05-03 20:35 | 26.06843 | -80.14256 | 17 ft | 2 kts | 1° |
| 2026-05-03 20:35 | 26.06828 | -80.14255 | 17 ft | 2 kts | 334° |
| 2026-05-03 20:35 | 26.06817 | -80.14244 | 16 ft | 2 kts | 277° |
| 2026-05-03 20:36 | 26.06817 | -80.14230 | 18 ft | 2 kts | 268° |
| 2026-05-03 20:36 | 26.06817 | -80.14213 | 16 ft | 2 kts | 268° |
| 2026-05-03 20:36 | 26.06817 | -80.14205 | 17 ft | 0 kts | 269° |
| 2026-05-03 20:39 | 26.06817 | -80.14209 | 15 ft | 4 kts | 263° |
| 2026-05-03 20:40 | 26.06778 | -80.14291 | 16 ft | 17 kts | 243° |
| 2026-05-03 20:40 | 26.06769 | -80.14455 | 15 ft | 26 kts | 271° |
| 2026-05-03 20:40 | 26.06761 | -80.14680 | 15 ft | 32 kts | 268° |
| 2026-05-03 20:40 | 26.06758 | -80.14899 | 15 ft | 9 kts | 229° |
| 2026-05-03 20:41 | 26.06696 | -80.14962 | 20 ft | 15 kts | 253° |
| 2026-05-03 20:41 | 26.06694 | -80.15109 | 19 ft | 23 kts | 272° |
| 2026-05-03 20:41 | 26.06693 | -80.15313 | 16 ft | 31 kts | 270° |
| 2026-05-03 20:41 | 26.06697 | -80.15538 | 16 ft | 9 kts | 271° |
| 2026-05-03 20:42 | 26.06697 | -80.15545 | 16 ft | 1 kts | 270° |
| 2026-05-03 20:42 | 26.06697 | -80.15566 | 16 ft | 0 kts | 270° |
| 2026-05-03 20:45 | 26.06697 | -80.15585 | 16 ft | 7 kts | 270° |
| 2026-05-03 20:45 | 26.06697 | -80.15613 | 16 ft | 3 kts | 270° |
| 2026-05-03 20:45 | 26.06697 | -80.15625 | 16 ft | 0 kts | 270° |
| 2026-05-03 20:47 | 26.06698 | -80.15638 | 16 ft | 0 kts | 272° |
| 2026-05-03 20:48 | 26.06698 | -80.15650 | 16 ft | 2 kts | 271° |
| 2026-05-03 20:48 | 26.06698 | -80.15652 | 16 ft | 3 kts | 271° |
| 2026-05-03 20:48 | 26.06698 | -80.15655 | 16 ft | 0 kts | 271° |
| 2026-05-03 20:48 | 26.06698 | -80.15669 | 16 ft | 3 kts | 271° |
| 2026-05-03 20:49 | 26.06698 | -80.15676 | 16 ft | 0 kts | 271° |
| 2026-05-03 20:50 | 26.06698 | -80.15682 | 16 ft | 0 kts | 271° |
| 2026-05-03 20:52 | 26.06699 | -80.15686 | 16 ft | 3 kts | 271° |
| 2026-05-03 20:52 | 26.06699 | -80.15719 | 16 ft | 9 kts | 270° |
| 2026-05-03 20:53 | 26.06699 | -80.15723 | 16 ft | 0 kts | 270° |
| 2026-05-03 20:53 | 26.06699 | -80.15724 | 16 ft | 0 kts | 270° |
| 2026-05-03 20:53 | 26.06699 | -80.15725 | 16 ft | 2 kts | 268° |
| 2026-05-03 20:53 | 26.06699 | -80.15727 | 16 ft | 0 kts | 268° |
| 2026-05-03 20:55 | 26.06699 | -80.15728 | 16 ft | 0 kts | 268° |
| 2026-05-03 20:55 | 26.06699 | -80.15730 | 16 ft | 0 kts | 268° |
| 2026-05-03 20:56 | 26.06699 | -80.15733 | 15 ft | 0 kts | 268° |
| 2026-05-03 20:56 | 26.06698 | -80.15766 | 15 ft | 0 kts | 269° |
| 2026-05-03 20:57 | 26.06698 | -80.15768 | 15 ft | 0 kts | 269° |
| 2026-05-03 20:58 | 26.06698 | -80.15773 | 15 ft | 0 kts | 267° |
| 2026-05-03 20:58 | 26.06697 | -80.15775 | 15 ft | 0 kts | 257° |
| 2026-05-03 21:02 | 26.06691 | -80.15793 | 16 ft | 7 kts | 242° |
| 2026-05-03 21:02 | 26.06674 | -80.15819 | 16 ft | 0 kts | 204° |
| 2026-05-03 21:05 | 26.06646 | -80.15823 | 16 ft | 9 kts | 181° |
| 2026-05-03 21:05 | 26.06591 | -80.15770 | 19 ft | 14 kts | 105° |
| 2026-05-03 21:06 | 26.06590 | -80.15744 | 19 ft | 0 kts | 88° |
| 2026-05-03 21:06 | 26.06589 | -80.15665 | 21 ft | 43 kts | 90° |
| 2026-05-03 21:07 | 26.06594 | -80.15011 | 19 ft | 123 kts | 91° |
| 2026-05-03 21:07 | 26.06568 | -80.13888 | 400 ft | 140 kts | 91° |
| 2026-05-03 21:07 | 26.06481 | -80.12907 | 1448 ft | 124 kts | 94° |
| 2026-05-03 21:07 | 26.06372 | -80.11859 | 1856 ft | 152 kts | 96° |
| 2026-05-03 21:08 | 26.06207 | -80.10552 | 2284 ft | 184 kts | 98° |
| 2026-05-03 21:08 | 26.06198 | -80.09140 | 3205 ft | 182 kts | 82° |
| 2026-05-03 21:08 | 26.06383 | -80.07745 | 4109 ft | 182 kts | 81° |
| 2026-05-03 21:08 | 26.06554 | -80.06338 | 4933 ft | 189 kts | 84° |
| 2026-05-03 21:09 | 26.06665 | -80.04827 | 5618 ft | 201 kts | 88° |
| 2026-05-03 21:09 | 26.06718 | -80.03240 | 6410 ft | 209 kts | 90° |
| 2026-05-03 21:09 | 26.06740 | -80.01624 | 7197 ft | 213 kts | 91° |
| 2026-05-03 21:09 | 26.06748 | -79.99963 | 8029 ft | 215 kts | 91° |
| 2026-05-03 21:10 | 26.06736 | -79.98412 | 8545 ft | 194 kts | 92° |
| 2026-05-03 21:10 | 26.06714 | -79.96874 | 8633 ft | 207 kts | 93° |
| 2026-05-03 21:10 | 26.06684 | -79.95177 | 8860 ft | 230 kts | 92° |
| 2026-05-03 21:10 | 26.06658 | -79.93320 | 9225 ft | 251 kts | 92° |
| 2026-05-03 21:11 | 26.06635 | -79.91297 | 9565 ft | 273 kts | 91° |
| 2026-05-03 21:11 | 26.06613 | -79.89088 | 9943 ft | 297 kts | 91° |
| 2026-05-03 21:11 | 26.06591 | -79.86705 | 10261 ft | 320 kts | 91° |
| 2026-05-03 21:11 | 26.06565 | -79.84146 | 10554 ft | 343 kts | 92° |
| 2026-05-03 21:12 | 26.06314 | -79.81416 | 10830 ft | 364 kts | 102° |
| 2026-05-03 21:12 | 26.05863 | -79.78615 | 11493 ft | 370 kts | 102° |
| 2026-05-03 21:12 | 26.05416 | -79.75772 | 12267 ft | 374 kts | 102° |
| 2026-05-03 21:12 | 26.04968 | -79.72899 | 12796 ft | 380 kts | 102° |
| 2026-05-03 21:13 | 26.04516 | -79.69991 | 12974 ft | 381 kts | 102° |
| 2026-05-03 21:13 | 26.04065 | -79.67088 | 13016 ft | 382 kts | 102° |
| 2026-05-03 21:13 | 26.03573 | -79.64193 | 13019 ft | 380 kts | 106° |
| 2026-05-03 21:13 | 26.02912 | -79.61389 | 13016 ft | 380 kts | 107° |
| 2026-05-03 21:14 | 26.02231 | -79.58504 | 13016 ft | 380 kts | 107° |
| 2026-05-03 21:14 | 26.01572 | -79.55696 | 13013 ft | 381 kts | 107° |
| 2026-05-03 21:14 | 26.00903 | -79.52846 | 13019 ft | 381 kts | 107° |
| 2026-05-03 21:14 | 26.00235 | -79.49997 | 13017 ft | 381 kts | 107° |
| 2026-05-03 21:15 | 25.99564 | -79.47145 | 13092 ft | 383 kts | 107° |
| 2026-05-03 21:15 | 25.98887 | -79.44271 | 13712 ft | 385 kts | 107° |
| 2026-05-03 21:15 | 25.98209 | -79.41390 | 14445 ft | 388 kts | 107° |
| 2026-05-03 21:15 | 25.97502 | -79.38481 | 15086 ft | 391 kts | 110° |
| 2026-05-03 21:16 | 25.96551 | -79.35637 | 15728 ft | 394 kts | 114° |
| 2026-05-03 21:16 | 25.95550 | -79.32780 | 16357 ft | 398 kts | 114° |
| 2026-05-03 21:16 | 25.94545 | -79.29896 | 16983 ft | 402 kts | 114° |
| 2026-05-03 21:16 | 25.93531 | -79.26982 | 17613 ft | 406 kts | 114° |
| 2026-05-03 21:17 | 25.92506 | -79.24035 | 18241 ft | 410 kts | 114° |
| 2026-05-03 21:17 | 25.91821 | -79.22068 | 18583 ft | 413 kts | 114° |
| 2026-05-03 21:17 | 25.90425 | -79.18060 | 19288 ft | 418 kts | 114° |